createdAt,value
2018-03-07T10:14:26.035Z,44.40
2018-03-07T10:16:53.653Z,45.40
2018-03-07T10:19:21.209Z,50.13
2018-03-07T10:21:48.823Z,45.87
2018-03-07T10:24:16.408Z,45.97
2018-03-07T10:26:43.971Z,45.80
2018-03-07T10:29:11.558Z,45.23
2018-03-07T10:31:40.432Z,43.10
2018-03-07T10:34:08.223Z,47.70
2018-03-07T10:36:35.828Z,49.20
2018-03-07T10:39:03.449Z,47.43
2018-03-07T10:41:31.014Z,42.23
2018-03-07T10:43:59.550Z,44.50
2018-03-07T10:46:27.534Z,45.77
2018-03-07T10:48:55.197Z,43.73
2018-03-07T10:51:22.778Z,39.37
2018-03-07T10:53:50.447Z,43.77
2018-03-07T10:56:18.057Z,41.93
2018-03-07T10:58:46.497Z,42.70
2018-03-07T11:01:14.051Z,48.77
2018-03-07T11:03:41.625Z,46.93
2018-03-07T11:06:09.183Z,45.30
2018-03-07T11:08:36.764Z,40.90
2018-03-07T11:11:04.324Z,45.27
2018-03-07T11:13:31.919Z,42.07
2018-03-07T11:15:59.485Z,43.33
2018-03-07T11:18:27.324Z,48.20
2018-03-07T11:20:55.519Z,40.87
2018-03-07T11:23:23.106Z,42.00
2018-03-07T11:25:50.673Z,41.53
2018-03-07T11:28:18.330Z,50.70
2018-03-07T11:30:45.932Z,39.37
2018-03-07T11:33:13.562Z,46.80
2018-03-07T11:35:41.113Z,39.67
2018-03-07T11:38:08.678Z,43.50
2018-03-07T11:40:36.267Z,45.23
2018-03-07T11:43:03.842Z,46.93
2018-03-07T11:45:31.766Z,42.43
2018-03-07T11:47:59.357Z,44.87
2018-03-07T11:50:26.974Z,39.03
2018-03-07T11:52:54.869Z,49.27
2018-03-07T11:55:23.072Z,42.80
2018-03-07T11:57:50.696Z,44.93
2018-03-07T12:00:18.562Z,44.77
2018-03-07T12:02:48.297Z,41.33
2018-03-07T12:05:16.180Z,43.47
2018-03-07T12:07:43.741Z,42.57
2018-03-07T12:10:11.679Z,45.73
2018-03-07T12:12:39.846Z,44.33
2018-03-07T12:15:07.505Z,47.13
2018-03-07T12:17:35.649Z,50.30
2018-03-07T12:20:03.860Z,45.47
2018-03-07T12:22:32.040Z,50.17
2018-03-07T12:25:00.110Z,55.10
2018-03-07T12:27:28.082Z,49.80
2018-03-07T12:29:56.426Z,56.27
2018-03-07T12:32:24.223Z,56.97
2018-03-07T12:34:51.867Z,52.87
2018-03-07T12:37:19.449Z,51.10
2018-03-07T12:39:47.306Z,58.70
2018-03-07T12:42:14.861Z,60.17
2018-03-07T12:44:42.456Z,73.83
2018-03-07T12:47:10.709Z,60.67
2018-03-07T12:49:38.410Z,73.80
2018-03-07T12:52:06.095Z,57.73
2018-03-07T12:54:33.709Z,69.63
2018-03-07T12:57:01.785Z,66.70
2018-03-07T12:59:29.476Z,76.97
2018-03-07T13:01:57.056Z,65.43
2018-03-07T13:04:24.643Z,74.10
2018-03-07T13:06:52.959Z,71.57
2018-03-07T13:09:20.708Z,73.53
2018-03-07T13:11:48.256Z,77.13
2018-03-07T13:14:15.868Z,78.00
2018-03-07T13:16:43.691Z,72.50
2018-03-07T13:19:11.282Z,68.87
2018-03-07T13:21:38.834Z,80.13
2018-03-07T13:24:06.442Z,77.77
2018-03-07T13:26:33.992Z,78.50
2018-03-07T13:29:01.793Z,82.40
2018-03-07T13:31:29.432Z,87.80
2018-03-07T13:33:57.056Z,78.20
2018-03-07T13:36:26.903Z,80.63
2018-03-07T13:38:54.511Z,72.03
2018-03-07T13:41:22.370Z,87.67
2018-03-07T13:43:49.953Z,80.20
2018-03-07T13:46:18.233Z,80.37
2018-03-07T13:48:45.875Z,73.60
2018-03-07T13:51:13.560Z,86.63
2018-03-07T13:53:41.203Z,93.73
2018-03-07T13:56:08.787Z,90.57
2018-03-07T13:58:36.587Z,85.53
2018-03-07T14:01:04.223Z,83.97
2018-03-07T14:03:31.844Z,82.13
2018-03-07T14:05:59.422Z,87.53
2018-03-07T14:08:27.062Z,81.50
2018-03-07T14:10:54.644Z,87.53
2018-03-07T14:13:22.235Z,82.37
2018-03-07T14:15:49.831Z,81.60
2018-03-07T14:18:17.734Z,77.60
2018-03-07T14:20:45.331Z,91.70
2018-03-07T14:23:13.129Z,80.77
2018-03-07T14:25:41.040Z,89.00
2018-03-07T14:28:09.091Z,84.27
2018-03-07T14:30:36.704Z,89.63
2018-03-07T14:33:04.269Z,90.77
2018-03-07T14:35:32.016Z,82.17
2018-03-07T14:37:59.615Z,77.83
2018-03-07T14:40:27.215Z,81.53
2018-03-07T14:42:54.780Z,79.40
2018-03-07T14:45:22.689Z,87.50
2018-03-07T14:47:50.248Z,90.83
2018-03-07T14:50:17.819Z,83.00
2018-03-07T14:52:45.427Z,82.17
2018-03-07T14:55:13.093Z,94.63
2018-03-07T14:57:40.770Z,88.27
2018-03-07T15:00:09.332Z,90.40
2018-03-07T15:02:37.823Z,81.70
2018-03-07T15:05:05.781Z,91.90
2018-03-07T15:07:33.936Z,88.47
2018-03-07T15:10:01.539Z,85.67
2018-03-07T15:12:29.102Z,92.20
2018-03-07T15:14:56.673Z,94.00
2018-03-07T15:17:24.238Z,90.43
2018-03-07T15:19:51.857Z,90.77
2018-03-07T15:22:19.796Z,90.13
2018-03-07T15:24:47.368Z,94.57
2018-03-07T15:27:14.927Z,87.30
2018-03-07T15:29:42.544Z,88.70
2018-03-07T15:32:10.119Z,84.10
2018-03-07T15:34:37.945Z,93.10
2018-03-07T15:37:05.576Z,97.23
2018-03-07T15:39:33.485Z,92.00
2018-03-07T15:42:01.156Z,90.67
2018-03-07T15:44:28.731Z,81.70
2018-03-07T15:46:56.309Z,88.30
2018-03-07T15:49:23.939Z,102.17
2018-03-07T15:51:51.539Z,93.23
2018-03-07T15:54:19.102Z,94.53
2018-03-07T15:56:46.712Z,94.00
2018-03-07T15:59:14.273Z,92.23
2018-03-07T16:01:41.852Z,87.93
2018-03-07T16:04:09.413Z,85.80
2018-03-07T16:06:37.009Z,81.53
2018-03-07T16:09:04.606Z,91.60
2018-03-07T16:11:32.761Z,84.80
2018-03-07T16:14:00.322Z,82.47
2018-03-07T16:16:27.880Z,83.30
2018-03-07T16:18:55.461Z,85.70
2018-03-07T16:21:23.032Z,81.23
2018-03-07T16:23:50.631Z,86.13
2018-03-07T16:26:18.562Z,89.67
2018-03-07T16:28:46.174Z,94.53
2018-03-07T16:31:13.887Z,98.30
2018-03-07T16:33:41.453Z,92.10
2018-03-07T16:36:09.037Z,100.63
2018-03-07T16:38:36.678Z,96.47
2018-03-07T16:41:04.255Z,95.63
2018-03-07T16:43:31.818Z,85.57
2018-03-07T16:46:00.092Z,103.00
2018-03-07T16:48:27.659Z,93.07
2018-03-07T16:50:55.251Z,87.03
2018-03-07T16:53:22.816Z,88.10
2018-03-07T16:55:51.185Z,81.13
2018-03-07T16:58:18.782Z,92.90
2018-03-07T17:00:46.338Z,99.37
2018-03-07T17:03:13.925Z,89.57
2018-03-07T17:05:41.485Z,94.07
2018-03-07T17:08:09.069Z,91.80
2018-03-07T17:10:36.913Z,97.50
2018-03-07T17:13:04.780Z,91.33
2018-03-07T17:15:32.393Z,96.30
2018-03-07T17:17:59.987Z,108.00
2018-03-07T17:20:27.534Z,108.90
2018-03-07T17:22:55.096Z,127.10
2018-03-07T17:25:22.813Z,108.10
2018-03-07T17:27:50.483Z,106.87
2018-03-07T17:30:18.045Z,109.63
2018-03-07T17:32:45.631Z,114.40
2018-03-07T17:35:13.191Z,118.43
2018-03-07T17:37:41.449Z,129.57
2018-03-07T17:40:09.028Z,109.10
2018-03-07T17:42:36.640Z,105.67
2018-03-07T17:45:05.321Z,120.93
2018-03-07T17:47:32.896Z,98.83
2018-03-07T17:50:00.463Z,101.57
2018-03-07T17:52:28.209Z,96.47
2018-03-07T17:54:56.069Z,102.03
2018-03-07T17:57:23.715Z,102.20
2018-03-07T17:59:51.403Z,100.07
2018-03-07T18:02:18.983Z,100.37
2018-03-07T18:04:46.632Z,103.60
2018-03-07T18:07:14.327Z,97.47
2018-03-07T18:09:41.953Z,98.57
2018-03-07T18:12:09.527Z,100.77
2018-03-07T18:14:37.084Z,97.80
2018-03-07T18:17:04.656Z,97.10
2018-03-07T18:19:32.207Z,101.23
2018-03-07T18:22:00.017Z,101.83
2018-03-07T18:24:27.752Z,90.90
2018-03-07T18:26:55.332Z,95.77
2018-03-07T18:29:22.903Z,103.43
2018-03-07T18:31:50.618Z,106.83
2018-03-07T18:34:18.208Z,89.10
2018-03-07T18:36:45.828Z,89.10
2018-03-07T18:39:13.796Z,89.57
2018-03-07T18:41:41.377Z,98.33
2018-03-07T18:44:09.067Z,108.53
2018-03-07T18:46:36.655Z,109.77
2018-03-07T18:49:04.362Z,94.73
2018-03-07T18:51:31.927Z,91.03
2018-03-07T18:53:59.529Z,85.97
2018-03-07T18:56:27.107Z,90.83
2018-03-07T18:58:54.723Z,87.10
2018-03-07T19:01:23.089Z,88.60
2018-03-07T19:03:57.913Z,80.80
2018-03-07T19:06:27.304Z,86.43
2018-03-07T19:09:07.419Z,77.13
2018-03-07T19:11:36.195Z,93.30
2018-03-07T19:14:04.445Z,83.40
2018-03-07T19:16:32.019Z,93.33
2018-03-07T19:18:59.638Z,88.80
2018-03-07T19:21:27.185Z,99.87
2018-03-07T19:23:54.845Z,95.13
2018-03-07T19:26:22.398Z,89.03
2018-03-07T19:28:50.314Z,97.80
2018-03-07T19:31:17.897Z,88.13
2018-03-07T19:33:45.465Z,91.90
2018-03-07T19:36:13.038Z,98.83
2018-03-07T19:38:40.625Z,102.10
2018-03-07T19:41:08.948Z,102.73
2018-03-07T19:43:36.587Z,103.17
2018-03-07T19:46:04.152Z,101.63
2018-03-07T19:48:32.398Z,102.87
2018-03-07T19:51:00.127Z,95.03
2018-03-07T19:53:27.720Z,111.53
2018-03-07T19:55:55.630Z,114.33
2018-03-07T19:58:23.212Z,101.17
2018-03-07T20:00:50.787Z,111.27
2018-03-07T20:03:18.364Z,96.17
2018-03-07T20:05:45.974Z,111.83
2018-03-07T20:08:13.618Z,108.30
2018-03-07T20:10:41.186Z,112.07
2018-03-07T20:13:08.766Z,103.27
2018-03-07T20:15:37.215Z,106.03
2018-03-07T20:18:05.210Z,116.40
2018-03-07T20:20:32.774Z,96.87
2018-03-07T20:23:00.353Z,98.23
2018-03-07T20:25:28.001Z,106.50
2018-03-07T20:27:55.627Z,102.23
2018-03-07T20:30:23.244Z,105.23
2018-03-07T20:32:51.019Z,109.13
2018-03-07T20:35:19.568Z,100.87
2018-03-07T20:37:47.216Z,99.37
2018-03-07T20:40:15.108Z,104.17
2018-03-07T20:42:42.892Z,95.50
2018-03-07T20:45:10.575Z,101.10
2018-03-07T20:47:38.404Z,98.07
2018-03-07T20:50:06.017Z,103.33
2018-03-07T20:52:33.611Z,107.77
2018-03-07T20:55:01.247Z,108.83
2018-03-07T20:57:28.906Z,116.40
2018-03-07T20:59:56.598Z,113.90
2018-03-07T21:02:24.704Z,104.50
2018-03-07T21:04:53.166Z,98.07
2018-03-07T21:07:20.780Z,114.80
2018-03-07T21:09:48.377Z,114.67
2018-03-07T21:12:15.953Z,110.43
2018-03-07T21:14:43.627Z,101.87
2018-03-07T21:17:11.421Z,107.87
2018-03-07T21:19:39.354Z,125.37
2018-03-07T21:22:07.759Z,103.83
2018-03-07T21:24:35.384Z,106.73
2018-03-07T21:27:03.255Z,118.00
2018-03-07T21:29:30.865Z,106.87
2018-03-07T21:31:58.419Z,109.90
2018-03-07T21:34:26.033Z,98.47
2018-03-07T21:36:53.590Z,104.40
2018-03-07T21:39:21.189Z,107.90
2018-03-07T21:41:48.807Z,119.47
2018-03-07T21:44:16.462Z,102.93
2018-03-07T21:46:44.078Z,109.70
2018-03-07T21:49:11.697Z,103.93
2018-03-07T21:51:39.280Z,125.77
2018-03-07T21:54:06.877Z,117.17
2018-03-07T21:56:34.510Z,112.30
2018-03-07T21:59:02.173Z,119.80
2018-03-07T22:01:30.135Z,120.47
2018-03-07T22:03:57.941Z,135.60
2018-03-07T22:06:25.604Z,117.40
2018-03-07T22:08:53.426Z,108.40
2018-03-07T22:11:21.000Z,131.30
2018-03-07T22:13:48.640Z,128.77
2018-03-07T22:16:16.203Z,127.47
2018-03-07T22:18:43.787Z,131.23
2018-03-07T22:21:11.394Z,128.07
2018-03-07T22:23:39.080Z,127.23
2018-03-07T22:26:06.754Z,119.57
2018-03-07T22:28:34.364Z,126.30
2018-03-07T22:31:02.018Z,132.37
2018-03-07T22:33:29.651Z,123.37
2018-03-07T22:35:57.322Z,145.40
2018-03-07T22:38:24.904Z,129.00
2018-03-07T22:40:52.500Z,133.30
2018-03-07T22:43:20.120Z,156.40
2018-03-07T22:45:47.777Z,134.30
2018-03-07T22:48:15.365Z,140.33
2018-03-07T22:50:43.045Z,139.43
2018-03-07T22:53:10.642Z,134.77
2018-03-07T22:55:38.478Z,136.43
2018-03-07T22:58:06.187Z,138.40
2018-03-07T23:00:39.253Z,132.10
2018-03-07T23:03:07.076Z,142.10
2018-03-07T23:05:34.736Z,134.33
2018-03-07T23:08:02.405Z,139.70
2018-03-07T23:10:30.005Z,133.93
2018-03-07T23:12:57.572Z,145.33
2018-03-07T23:15:28.050Z,137.97
2018-03-07T23:17:55.623Z,142.37
2018-03-07T23:20:23.184Z,142.70
2018-03-07T23:22:50.784Z,158.17
2018-03-07T23:25:18.382Z,138.93
2018-03-07T23:27:46.048Z,144.97
2018-03-07T23:30:13.686Z,158.67
2018-03-07T23:32:41.238Z,151.10
2018-03-07T23:35:09.029Z,145.00
2018-03-07T23:37:36.608Z,153.33
2018-03-07T23:40:06.282Z,139.97
2018-03-07T23:42:33.948Z,154.27
2018-03-07T23:45:01.512Z,146.20
2018-03-07T23:47:29.853Z,151.43
2018-03-07T23:49:58.024Z,154.90
2018-03-07T23:52:25.605Z,143.80
2018-03-07T23:54:54.930Z,148.53
2018-03-07T23:57:22.799Z,139.53
2018-03-07T23:59:50.502Z,152.33
